Delhaven Orchards

*Note: All times are displayed in the local standard time of the station location.
**Rain - Equipment is designed to accurately record liquid precipitation; under conditions when precipitation is not in liquid form, the data displayed may not properly reflect rainfall values.

Date Max Temp
(°C)
Min Temp
(°C)
Avg Temp
(°C)
Rain (mm) Avg RH (%)
Thu, Nov 15, 2018 2.9 -2.6 1.2 12.8 93.4
Wed, Nov 14, 2018 0.6 -7.1 -3.5 0.0 80.2
Tue, Nov 13, 2018 2.7 -3.5 -0.4 1.8 91.0
Mon, Nov 12, 2018 5.2 -6.0 0.3 0.0 91.1
Sun, Nov 11, 2018 3.8 -2.5 0.2 0.0 90.7
Sat, Nov 10, 2018 1.6 -5.0 -1.3 0.0 91.3
Fri, Nov 09, 2018 4.9 -1.1 3.1 7.2 95.8
DateTime Avg Temp (°C) Rain (mm) RH (%)
Fri, Nov 16, 2018 08:00 -0.1 0.0 100.0
Fri, Nov 16, 2018 07:00 0.0 0.0 100.0
Fri, Nov 16, 2018 06:00 0.3 0.0 100.0
Fri, Nov 16, 2018 05:00 0.1 0.0 100.0
Fri, Nov 16, 2018 04:00 0.2 0.0 100.0
Fri, Nov 16, 2018 03:00 0.5 0.0 100.0
Fri, Nov 16, 2018 02:00 1.1 0.0 100.0
Fri, Nov 16, 2018 01:00 1.3 0.0 100.0
Fri, Nov 16, 2018 00:00 1.2 0.0 100.0
Thu, Nov 15, 2018 23:00 1.4 0.0 100.0
Thu, Nov 15, 2018 22:00 2.6 0.4 100.0
Thu, Nov 15, 2018 21:00 2.8 1.2 100.0
Thu, Nov 15, 2018 20:00 2.7 1.0 100.0
Thu, Nov 15, 2018 19:00 2.6 0.8 100.0
Thu, Nov 15, 2018 18:00 2.4 1.4 100.0
Thu, Nov 15, 2018 17:00 2.2 1.4 100.0
Thu, Nov 15, 2018 16:00 2.1 1.6 100.0
Thu, Nov 15, 2018 15:00 1.7 2.4 100.0
Thu, Nov 15, 2018 14:00 1.2 2.0 100.0
Thu, Nov 15, 2018 13:00 0.6 0.6 100.0
Thu, Nov 15, 2018 12:00 0.3 0.0 100.0
Thu, Nov 15, 2018 11:00 0.9 0.0 97.0
Thu, Nov 15, 2018 10:00 1.7 0.0 82.5
Thu, Nov 15, 2018 09:00 1.6 0.0 80.3
Thu, Nov 15, 2018 08:00 1.7 0.0 81.3
Thu, Nov 15, 2018 07:00 1.2 0.0 81.3
Thu, Nov 15, 2018 06:00 0.8 0.0 81.0
Thu, Nov 15, 2018 05:00 0.5 0.0 81.5
Thu, Nov 15, 2018 04:00 0.5 0.0 83.3
Thu, Nov 15, 2018 03:00 0.6 0.0 86.3
Thu, Nov 15, 2018 02:00 -1.5 0.0 95.0
Thu, Nov 15, 2018 01:00 -2.4 0.0 91.5
Thu, Nov 15, 2018 00:00 -2.9 0.0 90.8
Wed, Nov 14, 2018 23:00 -3.4 0.0 90.0
Wed, Nov 14, 2018 22:00 -3.8 0.0 92.5
Wed, Nov 14, 2018 21:00 -4.4 0.0 99.0
Wed, Nov 14, 2018 20:00 -4.8 0.0 99.0
Wed, Nov 14, 2018 19:00 -4.9 0.0 100.0
Wed, Nov 14, 2018 18:00 -4.0 0.0 96.3
Wed, Nov 14, 2018 17:00 -2.1 0.0 73.5
Wed, Nov 14, 2018 16:00 -0.6 0.0 63.8
Wed, Nov 14, 2018 15:00 0.3 0.0 60.3
Wed, Nov 14, 2018 14:00 0.0 0.0 61.8
Wed, Nov 14, 2018 13:00 0.0 0.0 62.5
Wed, Nov 14, 2018 12:00 -0.4 0.0 62.8
Wed, Nov 14, 2018 11:00 -1.3 0.0 66.0
Wed, Nov 14, 2018 10:00 -2.7 0.0 69.8
Wed, Nov 14, 2018 09:00 -4.6 0.0 78.3


asterix Register now to access more data! asterix